createdAt,value
2022-10-16T00:00:24.514Z,100926.00
2022-10-16T00:02:57.415Z,100924.00
2022-10-16T00:05:34.517Z,100920.00
2022-10-16T00:08:07.551Z,100917.00
2022-10-16T00:10:40.571Z,100910.00
2022-10-16T00:13:13.576Z,100908.00
2022-10-16T00:15:46.828Z,100924.00
2022-10-16T00:18:20.129Z,100917.00
2022-10-16T00:20:53.214Z,100910.00
2022-10-16T00:23:26.157Z,100914.00
2022-10-16T00:26:03.365Z,100912.00
2022-10-16T00:28:36.838Z,100912.00
2022-10-16T00:31:11.468Z,100916.00
2022-10-16T00:33:45.327Z,100905.00
2022-10-16T00:36:20.015Z,100899.00
2022-10-16T00:38:55.652Z,100899.00
2022-10-16T00:41:29.807Z,100905.00
2022-10-16T00:44:04.268Z,100908.00
2022-10-16T00:46:46.794Z,100902.00
2022-10-16T00:49:21.595Z,100909.00
2022-10-16T00:51:56.189Z,100896.00
2022-10-16T00:54:31.054Z,100894.00
2022-10-16T00:57:06.040Z,100901.00
2022-10-16T00:59:41.311Z,100906.00
2022-10-16T01:02:15.942Z,100902.00
2022-10-16T01:04:53.626Z,100902.00
2022-10-16T01:07:43.512Z,100900.00
2022-10-16T01:10:27.595Z,100907.00
2022-10-16T01:13:14.039Z,100902.00
2022-10-16T01:16:00.874Z,100904.00
2022-10-16T01:18:51.041Z,100909.00
2022-10-16T01:21:28.922Z,100902.00
2022-10-16T01:24:27.924Z,100906.00
2022-10-16T01:27:15.489Z,100909.00
2022-10-16T01:30:04.982Z,100913.00
2022-10-16T01:32:42.808Z,100907.00
2022-10-16T01:35:17.840Z,100909.00
2022-10-16T01:37:55.212Z,100911.00
2022-10-16T01:40:30.237Z,100903.00
2022-10-16T01:43:13.629Z,100897.00
2022-10-16T01:45:47.761Z,100900.00
2022-10-16T01:48:22.541Z,100899.00
2022-10-16T01:51:00.408Z,100904.00
2022-10-16T01:53:34.405Z,100887.00
2022-10-16T01:56:09.385Z,100895.00
2022-10-16T01:58:44.113Z,100881.00
2022-10-16T02:01:19.168Z,100876.00
2022-10-16T02:03:54.003Z,100882.00
2022-10-16T02:06:28.101Z,100878.00
2022-10-16T02:09:01.217Z,100873.00
2022-10-16T02:11:34.153Z,100884.00
2022-10-16T02:14:10.899Z,100874.00
2022-10-16T02:16:46.513Z,100874.00
2022-10-16T02:19:26.285Z,100881.00
2022-10-16T02:22:04.633Z,100874.00
2022-10-16T02:25:08.275Z,100873.00
2022-10-16T02:27:52.586Z,100867.00
2022-10-16T02:30:36.076Z,100875.00
2022-10-16T02:33:13.841Z,100871.00
2022-10-16T02:35:48.973Z,100855.00
2022-10-16T02:38:23.061Z,100864.00
2022-10-16T02:40:56.231Z,100861.00
2022-10-16T02:43:31.269Z,100862.00
2022-10-16T02:46:04.646Z,100867.00
2022-10-16T02:48:37.956Z,100866.00
2022-10-16T02:51:11.713Z,100861.00
2022-10-16T02:53:45.265Z,100855.00
2022-10-16T02:58:52.764Z,100848.00
2022-10-16T03:01:25.829Z,100858.00
2022-10-16T03:03:58.892Z,100848.00
2022-10-16T03:06:32.058Z,100853.00
2022-10-16T03:09:04.960Z,100845.00
2022-10-16T03:11:38.094Z,100838.00
2022-10-16T03:14:11.165Z,100843.00
2022-10-16T03:16:44.407Z,100849.00
2022-10-16T03:19:17.469Z,100843.00
2022-10-16T03:21:50.449Z,100846.00
2022-10-16T03:24:23.777Z,100847.00
2022-10-16T03:26:56.603Z,100846.00
2022-10-16T03:29:30.506Z,100862.00
2022-10-16T03:32:03.479Z,100844.00
2022-10-16T03:34:36.558Z,100844.00
2022-10-16T03:37:09.549Z,100844.00
2022-10-16T03:39:46.748Z,100847.00
2022-10-16T03:42:19.712Z,100845.00
2022-10-16T03:44:52.550Z,100848.00
2022-10-16T03:47:26.645Z,100855.00
2022-10-16T03:50:00.067Z,100846.00
2022-10-16T03:52:33.245Z,100854.00
2022-10-16T03:55:06.484Z,100846.00
2022-10-16T03:57:39.606Z,100848.00
2022-10-16T04:00:13.935Z,100846.00
2022-10-16T04:05:20.167Z,100851.00
2022-10-16T04:07:53.041Z,100848.00
2022-10-16T04:10:26.301Z,100845.00
2022-10-16T04:12:59.552Z,100856.00
2022-10-16T04:15:32.456Z,100874.00
2022-10-16T04:18:05.684Z,100862.00
2022-10-16T04:20:38.830Z,100867.00
2022-10-16T04:23:12.077Z,100859.00
2022-10-16T04:25:45.312Z,100863.00
2022-10-16T04:28:23.376Z,100868.00
2022-10-16T04:30:56.462Z,100860.00
2022-10-16T04:33:29.515Z,100870.00
2022-10-16T04:36:09.472Z,100868.00
2022-10-16T04:38:42.611Z,100881.00
2022-10-16T04:41:15.547Z,100884.00
2022-10-16T04:43:48.430Z,100875.00
2022-10-16T04:46:21.391Z,100882.00
2022-10-16T04:48:54.256Z,100880.00
2022-10-16T04:51:26.979Z,100895.00
2022-10-16T04:53:59.933Z,100889.00
2022-10-16T04:56:32.908Z,100880.00
2022-10-16T04:59:07.152Z,100887.00
2022-10-16T05:01:40.247Z,100886.00
2022-10-16T05:04:16.415Z,100894.00
2022-10-16T05:06:49.822Z,100883.00
2022-10-16T05:09:29.764Z,100901.00
2022-10-16T05:12:05.739Z,100895.00
2022-10-16T05:14:44.133Z,100908.00
2022-10-16T05:17:17.380Z,100907.00
2022-10-16T05:19:51.194Z,100912.00
2022-10-16T05:22:24.642Z,100911.00
2022-10-16T05:24:57.527Z,100907.00
2022-10-16T05:27:30.532Z,100917.00
2022-10-16T05:30:04.864Z,100911.00
2022-10-16T05:32:38.049Z,100912.00
2022-10-16T05:35:12.705Z,100915.00
2022-10-16T05:37:45.465Z,100916.00
2022-10-16T05:40:19.707Z,100921.00
2022-10-16T05:42:53.831Z,100931.00
2022-10-16T05:45:31.036Z,100922.00
2022-10-16T05:48:09.980Z,100912.00
2022-10-16T05:50:42.893Z,100925.00
2022-10-16T05:53:19.282Z,100927.00
2022-10-16T05:55:55.870Z,100923.00
2022-10-16T05:58:36.763Z,100923.00
2022-10-16T06:01:14.259Z,100922.00
2022-10-16T06:03:46.559Z,100924.00
2022-10-16T06:06:30.412Z,100926.00
2022-10-16T06:11:59.365Z,100924.00
2022-10-16T06:14:42.269Z,100918.00
2022-10-16T06:17:16.742Z,100920.00
2022-10-16T06:20:07.766Z,100926.00
2022-10-16T06:22:45.852Z,100929.00
2022-10-16T06:25:32.077Z,100922.00
2022-10-16T06:34:27.615Z,100938.00
2022-10-16T06:37:00.310Z,100929.00
2022-10-16T06:39:33.364Z,100928.00
2022-10-16T06:42:09.614Z,100932.00
2022-10-16T06:44:44.142Z,100940.00
2022-10-16T06:47:17.035Z,100943.00
2022-10-16T06:49:53.472Z,100937.00
2022-10-16T06:52:24.770Z,100947.00
2022-10-16T06:54:57.967Z,100948.00
2022-10-16T06:57:30.926Z,100942.00
2022-10-16T07:00:03.892Z,100945.00
2022-10-16T07:02:59.515Z,100960.00
2022-10-16T07:08:48.203Z,100966.00
2022-10-16T07:11:23.157Z,100965.00
2022-10-16T07:13:56.528Z,100970.00
2022-10-16T07:16:32.182Z,100972.00
2022-10-16T07:19:07.004Z,100986.00
2022-10-16T07:21:40.691Z,100984.00
2022-10-16T07:24:18.323Z,100995.00
2022-10-16T07:26:51.265Z,100991.00
2022-10-16T07:29:25.466Z,100989.00
2022-10-16T07:31:58.389Z,100994.00
2022-10-16T07:34:31.318Z,100993.00
2022-10-16T07:37:04.154Z,101008.00
2022-10-16T07:40:01.705Z,101004.00
2022-10-16T07:42:35.434Z,101010.00
2022-10-16T07:45:08.857Z,101011.00
2022-10-16T07:47:41.936Z,101015.00
2022-10-16T07:50:15.442Z,101020.00
2022-10-16T07:52:49.212Z,101015.00
2022-10-16T07:55:22.325Z,101010.00
2022-10-16T07:57:55.758Z,101021.00
2022-10-16T08:00:28.686Z,101036.00
2022-10-16T08:03:03.820Z,101034.00
2022-10-16T08:05:38.159Z,101047.00
2022-10-16T08:08:11.692Z,101055.00
2022-10-16T08:10:44.817Z,101053.00
2022-10-16T08:13:18.413Z,101056.00
2022-10-16T08:15:52.524Z,101058.00
2022-10-16T08:18:26.358Z,101064.00
2022-10-16T08:21:03.853Z,101061.00
2022-10-16T08:23:39.634Z,101069.00
2022-10-16T08:26:13.857Z,101072.00
2022-10-16T08:28:46.780Z,101078.00
2022-10-16T08:31:21.107Z,101082.00
2022-10-16T08:33:59.602Z,101071.00
2022-10-16T08:36:32.986Z,101077.00
2022-10-16T08:39:06.339Z,101075.00
2022-10-16T08:42:06.359Z,101088.00
2022-10-16T08:44:41.389Z,101082.00
2022-10-16T08:47:24.884Z,101080.00
2022-10-16T08:50:06.141Z,101084.00
2022-10-16T08:52:47.288Z,101092.00
2022-10-16T08:55:40.353Z,101099.00
2022-10-16T08:58:23.842Z,101094.00
2022-10-16T09:00:58.778Z,101100.00
2022-10-16T09:03:52.678Z,101099.00
2022-10-16T09:06:36.453Z,101095.00
2022-10-16T09:09:24.006Z,101095.00
2022-10-16T09:12:10.800Z,101094.00
2022-10-16T09:14:48.680Z,101101.00
2022-10-16T09:17:32.138Z,101100.00
2022-10-16T09:20:26.633Z,101102.00
2022-10-16T09:23:11.031Z,101108.00
2022-10-16T09:25:45.964Z,101116.00
2022-10-16T09:28:19.303Z,101107.00
2022-10-16T09:30:52.550Z,101109.00
2022-10-16T09:33:28.096Z,101109.00
2022-10-16T09:36:02.181Z,101109.00
2022-10-16T09:38:36.771Z,101115.00
2022-10-16T09:41:24.053Z,101110.00
2022-10-16T09:44:01.886Z,101121.00
2022-10-16T09:46:45.208Z,101114.00
2022-10-16T09:49:29.695Z,101111.00
2022-10-16T09:52:19.975Z,101108.00
2022-10-16T09:55:06.503Z,101111.00
2022-10-16T09:57:39.960Z,101115.00
2022-10-16T10:00:14.557Z,101111.00
2022-10-16T10:02:47.856Z,101114.00
2022-10-16T10:05:28.368Z,101120.00
2022-10-16T10:08:07.416Z,101114.00
2022-10-16T10:10:49.012Z,101126.00
2022-10-16T10:13:24.146Z,101117.00
2022-10-16T10:15:57.395Z,101117.00
2022-10-16T10:18:30.278Z,101120.00
2022-10-16T10:21:08.466Z,101122.00
2022-10-16T10:23:42.538Z,101119.00
2022-10-16T10:26:20.505Z,101117.00
2022-10-16T10:29:01.183Z,101117.00
2022-10-16T10:31:38.931Z,101127.00
2022-10-16T10:34:32.136Z,101122.00
2022-10-16T10:37:19.787Z,101127.00
2022-10-16T10:39:54.476Z,101129.00
2022-10-16T10:42:41.183Z,101131.00
2022-10-16T10:45:31.230Z,101133.00
2022-10-16T10:48:21.050Z,101137.00
2022-10-16T10:50:59.169Z,101137.00
2022-10-16T10:53:36.929Z,101135.00
2022-10-16T10:56:31.226Z,101135.00
2022-10-16T10:59:09.489Z,101143.00
2022-10-16T11:01:49.527Z,101139.00
2022-10-16T11:04:45.499Z,101143.00
2022-10-16T11:07:29.989Z,101142.00
2022-10-16T11:10:05.328Z,101141.00
2022-10-16T11:12:46.578Z,101140.00
2022-10-16T11:15:24.748Z,101131.00
2022-10-16T11:18:18.033Z,101138.00
2022-10-16T11:20:55.632Z,101142.00
2022-10-16T11:23:45.755Z,101138.00
2022-10-16T11:26:23.362Z,101136.00
2022-10-16T11:28:58.628Z,101128.00
2022-10-16T11:31:42.077Z,101137.00
2022-10-16T11:34:42.718Z,101146.00
2022-10-16T11:37:17.680Z,101144.00
2022-10-16T11:39:51.371Z,101144.00
2022-10-16T11:42:29.777Z,101148.00
2022-10-16T11:45:30.075Z,101144.00
2022-10-16T11:48:05.263Z,101151.00
2022-10-16T11:50:43.392Z,101143.00
2022-10-16T11:53:36.386Z,101136.00
2022-10-16T11:56:10.377Z,101138.00
2022-10-16T11:58:51.623Z,101142.00
2022-10-16T12:01:49.232Z,101134.00
2022-10-16T12:04:30.512Z,101139.00
2022-10-16T12:07:14.361Z,101140.00
2022-10-16T12:09:47.794Z,101145.00
2022-10-16T12:12:37.874Z,101140.00
2022-10-16T12:15:47.017Z,101146.00
2022-10-16T12:18:03.458Z,101145.00
2022-10-16T12:20:40.271Z,101145.00
2022-10-16T12:23:15.425Z,101137.00
2022-10-16T12:25:57.114Z,101147.00
2022-10-16T12:28:37.290Z,101135.00
2022-10-16T12:31:15.795Z,101133.00
2022-10-16T12:34:06.123Z,101138.00
2022-10-16T12:36:41.170Z,101135.00
2022-10-16T12:39:16.379Z,101132.00
2022-10-16T12:41:49.268Z,101130.00
2022-10-16T12:44:32.887Z,101131.00
2022-10-16T12:47:05.986Z,101133.00
2022-10-16T12:49:41.036Z,101135.00
2022-10-16T12:52:36.568Z,101128.00
2022-10-16T12:55:12.332Z,101127.00
2022-10-16T12:58:06.671Z,101121.00
2022-10-16T13:00:44.780Z,101116.00
2022-10-16T13:03:32.207Z,101124.00
2022-10-16T13:06:10.413Z,101128.00
2022-10-16T13:09:06.292Z,101126.00
2022-10-16T13:12:00.587Z,101129.00
2022-10-16T13:14:36.523Z,101123.00
2022-10-16T13:17:30.408Z,101132.00
2022-10-16T13:20:08.719Z,101127.00
2022-10-16T13:22:46.661Z,101125.00
2022-10-16T13:25:33.442Z,101124.00
2022-10-16T13:28:32.688Z,101127.00
2022-10-16T13:31:14.585Z,101130.00
2022-10-16T13:37:22.354Z,101125.00
2022-10-16T13:40:25.614Z,101129.00
2022-10-16T13:45:59.819Z,101128.00
2022-10-16T13:48:50.619Z,101122.00
2022-10-16T13:55:01.048Z,101121.00
2022-10-16T14:01:17.063Z,101119.00
2022-10-16T14:03:38.066Z,101116.00
2022-10-16T14:37:52.158Z,101115.00
2022-10-16T14:44:02.783Z,101112.00
2022-10-16T14:46:42.570Z,101117.00
2022-10-16T14:49:18.769Z,101111.00
2022-10-16T14:52:23.211Z,101117.00
2022-10-16T14:55:11.865Z,101116.00
2022-10-16T15:00:46.938Z,101120.00
2022-10-16T15:03:38.475Z,101101.00
2022-10-16T15:09:15.900Z,101111.00
2022-10-16T15:11:53.531Z,101116.00
2022-10-16T15:14:51.651Z,101114.00
2022-10-16T15:17:37.152Z,101124.00
2022-10-16T15:23:04.252Z,101110.00
2022-10-16T15:25:51.785Z,101119.00
2022-10-16T15:32:03.052Z,101119.00
2022-10-16T15:36:59.165Z,101123.00
2022-10-16T15:40:41.763Z,101126.00
2022-10-16T15:43:29.429Z,101116.00
2022-10-16T15:53:43.327Z,101132.00
2022-10-16T16:48:21.617Z,101143.00
2022-10-16T16:57:19.745Z,101147.00
2022-10-16T17:03:27.034Z,101148.00
2022-10-16T17:23:08.061Z,101145.00
2022-10-16T17:49:01.317Z,101165.00
2022-10-16T17:51:49.921Z,101168.00
2022-10-16T18:21:43.721Z,101198.00
2022-10-16T18:41:00.010Z,101218.00
2022-10-16T18:43:41.322Z,101221.00
2022-10-16T18:46:14.444Z,101215.00
2022-10-16T18:48:48.779Z,101222.00
2022-10-16T18:51:35.431Z,101224.00
2022-10-16T18:54:15.551Z,101223.00
2022-10-16T18:56:48.479Z,101218.00
2022-10-16T18:59:21.534Z,101227.00
2022-10-16T19:01:54.495Z,101230.00
2022-10-16T19:04:27.688Z,101236.00
2022-10-16T19:07:00.494Z,101237.00
2022-10-16T19:09:33.563Z,101234.00
2022-10-16T19:12:06.488Z,101235.00
2022-10-16T19:14:39.900Z,101235.00
2022-10-16T19:17:13.285Z,101239.00
2022-10-16T19:19:46.169Z,101224.00
2022-10-16T19:22:20.224Z,101223.00
2022-10-16T19:24:53.242Z,101217.00
2022-10-16T19:27:26.604Z,101236.00
2022-10-16T19:30:04.756Z,101234.00
2022-10-16T19:32:37.547Z,101239.00
2022-10-16T19:35:29.590Z,101233.00
2022-10-16T19:38:01.935Z,101234.00
2022-10-16T19:40:35.214Z,101233.00
2022-10-16T19:43:08.551Z,101235.00
2022-10-16T19:45:41.589Z,101230.00
2022-10-16T19:48:14.495Z,101234.00
2022-10-16T19:50:51.285Z,101229.00
2022-10-16T19:53:36.822Z,101230.00
2022-10-16T19:56:17.706Z,101240.00
2022-10-16T19:58:51.381Z,101246.00
2022-10-16T20:01:24.793Z,101252.00
2022-10-16T20:03:58.364Z,101248.00
2022-10-16T20:06:31.462Z,101254.00
2022-10-16T20:09:04.592Z,101260.00
2022-10-16T20:11:39.314Z,101260.00
2022-10-16T20:14:13.023Z,101254.00
2022-10-16T20:16:46.187Z,101252.00
2022-10-16T20:19:19.166Z,101256.00
2022-10-16T20:21:52.360Z,101259.00
2022-10-16T20:24:25.212Z,101262.00
2022-10-16T20:26:58.964Z,101259.00
2022-10-16T20:29:32.243Z,101257.00
2022-10-16T20:32:05.170Z,101256.00
2022-10-16T20:37:12.018Z,101253.00
2022-10-16T20:39:45.071Z,101253.00
2022-10-16T20:42:17.984Z,101249.00
2022-10-16T20:45:18.530Z,101263.00
2022-10-16T20:47:32.285Z,101263.00
2022-10-16T20:50:05.181Z,101259.00
2022-10-16T20:52:38.288Z,101262.00
2022-10-16T20:55:12.215Z,101271.00
2022-10-16T20:57:45.241Z,101261.00
2022-10-16T21:00:19.303Z,101258.00
2022-10-16T21:02:55.699Z,101258.00
2022-10-16T21:05:29.681Z,101249.00
2022-10-16T21:08:14.658Z,101248.00
2022-10-16T21:10:41.694Z,101243.00
2022-10-16T21:13:14.671Z,101245.00
2022-10-16T21:15:48.098Z,101244.00
2022-10-16T21:18:22.254Z,101246.00
2022-10-16T21:20:55.286Z,101254.00
2022-10-16T21:23:28.159Z,101246.00
2022-10-16T21:26:01.523Z,101237.00
2022-10-16T21:28:36.429Z,101245.00
2022-10-16T21:31:21.955Z,101243.00
2022-10-16T21:33:55.403Z,101248.00
2022-10-16T21:36:30.421Z,101244.00
2022-10-16T21:39:08.142Z,101247.00
2022-10-16T21:41:41.518Z,101232.00
2022-10-16T21:44:14.799Z,101234.00
2022-10-16T21:46:48.221Z,101221.00
2022-10-16T21:49:22.321Z,101222.00
2022-10-16T21:51:55.448Z,101218.00
2022-10-16T21:54:28.777Z,101219.00
2022-10-16T21:57:01.765Z,101218.00
2022-10-16T21:59:34.968Z,101218.00
2022-10-16T22:02:08.241Z,101215.00
2022-10-16T22:04:41.268Z,101210.00
2022-10-16T22:07:21.536Z,101212.00
2022-10-16T22:09:59.964Z,101206.00
2022-10-16T22:12:39.044Z,101213.00
2022-10-16T22:15:13.450Z,101213.00
2022-10-16T22:17:46.357Z,101221.00
2022-10-16T22:20:20.251Z,101230.00
2022-10-16T22:22:53.265Z,101224.00
2022-10-16T22:25:26.236Z,101224.00
2022-10-16T22:27:59.319Z,101226.00
2022-10-16T22:30:32.855Z,101227.00
2022-10-16T22:33:05.842Z,101226.00
2022-10-16T22:35:45.081Z,101215.00
2022-10-16T22:38:18.060Z,101198.00
2022-10-16T22:40:51.408Z,101193.00
2022-10-16T22:43:24.363Z,101202.00
2022-10-16T22:45:57.289Z,101192.00
2022-10-16T22:48:30.439Z,101187.00
2022-10-16T22:51:03.588Z,101188.00
2022-10-16T22:53:36.554Z,101188.00
2022-10-16T22:56:09.531Z,101182.00
2022-10-16T22:58:42.454Z,101185.00
2022-10-16T23:01:20.448Z,101173.00
2022-10-16T23:03:53.761Z,101186.00
2022-10-16T23:06:27.126Z,101187.00
2022-10-16T23:09:01.748Z,101193.00
2022-10-16T23:11:35.257Z,101200.00
2022-10-16T23:14:08.661Z,101206.00
2022-10-16T23:16:41.577Z,101215.00
2022-10-16T23:19:14.570Z,101217.00
2022-10-16T23:21:47.935Z,101212.00
2022-10-16T23:24:20.936Z,101221.00
2022-10-16T23:26:53.935Z,101228.00
2022-10-16T23:29:26.927Z,101224.00
2022-10-16T23:32:00.435Z,101225.00
2022-10-16T23:34:33.365Z,101219.00
2022-10-16T23:37:07.738Z,101227.00
2022-10-16T23:39:45.652Z,101225.00
2022-10-16T23:42:17.247Z,101225.00
2022-10-16T23:44:50.273Z,101218.00
2022-10-16T23:47:23.263Z,101217.00
2022-10-16T23:49:56.236Z,101207.00
2022-10-16T23:52:31.155Z,101206.00
2022-10-16T23:55:04.133Z,101203.00
2022-10-16T23:57:37.004Z,101199.00
